createdAt,value
2023-03-02T00:00:48.061Z,102434.34
2023-03-02T00:04:33.431Z,102438.41
2023-03-02T00:08:03.833Z,102439.05
2023-03-02T00:11:40.342Z,102441.41
2023-03-02T00:15:17.174Z,102440.27
2023-03-02T00:18:54.913Z,102444.20
2023-03-02T00:22:32.598Z,102441.53
2023-03-02T00:26:10.235Z,102447.61
2023-03-02T00:29:47.755Z,102439.98
2023-03-02T00:33:26.629Z,102437.67
2023-03-02T00:37:03.125Z,102437.04
2023-03-02T00:40:49.546Z,102433.23
2023-03-02T00:44:18.532Z,102430.50
2023-03-02T00:47:56.434Z,102428.89
2023-03-02T00:51:33.828Z,102421.45
2023-03-02T00:55:11.829Z,102411.42
2023-03-02T00:58:49.032Z,102416.06
2023-03-02T01:02:27.499Z,102413.45
2023-03-02T01:06:05.220Z,102406.40
2023-03-02T01:09:43.448Z,102405.12
2023-03-02T01:13:20.443Z,102407.42
2023-03-02T01:16:57.676Z,102405.61
2023-03-02T01:20:35.336Z,102405.48
2023-03-02T01:24:13.243Z,102402.87
2023-03-02T01:27:50.747Z,102402.98
2023-03-02T01:31:29.436Z,102403.84
2023-03-02T01:35:06.461Z,102395.65
2023-03-02T01:38:44.161Z,102394.74
2023-03-02T01:42:21.400Z,102398.48
2023-03-02T01:46:06.928Z,102395.88
2023-03-02T01:49:38.100Z,102392.61
2023-03-02T01:53:16.690Z,102392.08
2023-03-02T01:56:59.414Z,102387.65
2023-03-02T02:00:34.515Z,102388.55
2023-03-02T02:04:07.794Z,102384.93
2023-03-02T02:07:45.701Z,102381.30
2023-03-02T02:11:22.568Z,102375.61
2023-03-02T02:15:01.838Z,102376.73
2023-03-02T02:18:41.284Z,102380.00
2023-03-02T02:22:27.200Z,102381.86
2023-03-02T02:25:53.316Z,102382.66
2023-03-02T02:29:35.378Z,102380.64
2023-03-02T02:33:16.608Z,102385.55
2023-03-02T02:36:49.956Z,102381.13
2023-03-02T02:40:40.724Z,102380.42
2023-03-02T02:44:01.679Z,102377.95
2023-03-02T02:47:39.180Z,102374.02
2023-03-02T02:51:23.777Z,102369.97
2023-03-02T02:54:57.317Z,102367.61
2023-03-02T02:58:40.157Z,102371.90
2023-03-02T03:02:20.843Z,102371.94
2023-03-02T03:05:47.915Z,102369.99
2023-03-02T03:09:25.672Z,102365.36
2023-03-02T03:13:03.100Z,102363.12
2023-03-02T03:16:43.717Z,102357.60
2023-03-02T03:20:19.974Z,102355.50
2023-03-02T03:23:55.856Z,102355.21
2023-03-02T03:27:33.754Z,102355.27
2023-03-02T03:31:11.378Z,102347.73
2023-03-02T03:34:49.693Z,102352.09
2023-03-02T03:38:27.159Z,102346.52
2023-03-02T03:42:05.815Z,102337.93
2023-03-02T03:45:41.862Z,102332.80
2023-03-02T03:49:19.830Z,102330.70
2023-03-02T03:52:57.876Z,102330.39
2023-03-02T03:56:41.200Z,102327.55
2023-03-02T04:00:17.423Z,102327.89
2023-03-02T04:03:50.783Z,102324.27
2023-03-02T04:07:28.085Z,102319.02
2023-03-02T04:11:06.144Z,102317.65
2023-03-02T04:14:43.411Z,102318.15
2023-03-02T04:18:21.263Z,102314.96
2023-03-02T04:21:58.641Z,102314.73
2023-03-02T04:25:36.635Z,102314.62
2023-03-02T04:29:14.195Z,102312.09
2023-03-02T04:32:52.414Z,102308.16
2023-03-02T04:36:31.294Z,102305.98
2023-03-02T04:40:09.015Z,102304.90
2023-03-02T04:43:45.267Z,102306.49
2023-03-02T04:47:22.757Z,102305.31
2023-03-02T04:51:00.197Z,102300.88
2023-03-02T04:54:57.023Z,102298.30
2023-03-02T04:58:15.657Z,102296.88
2023-03-02T05:01:55.342Z,102299.04
2023-03-02T05:05:31.601Z,102297.60
2023-03-02T05:09:08.776Z,102294.63
2023-03-02T05:13:05.423Z,102291.94
2023-03-02T05:16:26.035Z,102286.77
2023-03-02T05:20:01.406Z,102287.06
2023-03-02T05:23:39.443Z,102292.89
2023-03-02T05:27:16.596Z,102293.55
2023-03-02T05:30:54.996Z,102300.05
2023-03-02T05:34:32.117Z,102301.52
2023-03-02T05:38:10.416Z,102295.58
2023-03-02T05:41:47.447Z,102295.80
2023-03-02T05:45:32.054Z,102296.68
2023-03-02T05:49:04.148Z,102296.51
2023-03-02T05:52:40.958Z,102297.67
2023-03-02T05:56:20.554Z,102296.61
2023-03-02T05:59:56.190Z,102298.92
2023-03-02T06:03:33.713Z,102300.77
2023-03-02T06:07:12.357Z,102305.67
2023-03-02T06:10:51.070Z,102303.06
2023-03-02T06:14:26.973Z,102302.34
2023-03-02T06:18:04.476Z,102303.42
2023-03-02T06:21:42.494Z,102305.42
2023-03-02T06:25:23.373Z,102304.59
2023-03-02T06:28:58.828Z,102306.95
2023-03-02T06:32:35.751Z,102308.28
2023-03-02T06:36:15.252Z,102306.44
2023-03-02T06:39:50.556Z,102305.84
2023-03-02T06:43:28.511Z,102307.61
2023-03-02T06:47:05.694Z,102306.80
2023-03-02T06:50:43.497Z,102303.56
2023-03-02T06:54:23.101Z,102304.98
2023-03-02T06:57:58.995Z,102306.30
2023-03-02T07:01:36.715Z,102303.70
2023-03-02T07:05:14.181Z,102306.23
2023-03-02T07:08:51.814Z,102308.16
2023-03-02T07:12:29.851Z,102308.58
2023-03-02T07:16:12.421Z,102305.71
2023-03-02T07:19:45.146Z,102306.08
2023-03-02T07:23:25.354Z,102306.11
2023-03-02T07:27:00.267Z,102305.31
2023-03-02T07:30:37.982Z,102299.41
2023-03-02T07:34:16.622Z,102294.59
2023-03-02T07:37:55.879Z,102291.72
2023-03-02T07:41:31.559Z,102296.61
2023-03-02T07:45:08.932Z,102299.29
2023-03-02T07:48:46.439Z,102296.09
2023-03-02T07:52:23.953Z,102295.38
2023-03-02T07:56:06.762Z,102296.89
2023-03-02T07:59:40.886Z,102293.95
2023-03-02T08:03:17.100Z,102294.73
2023-03-02T08:06:54.882Z,102290.95
2023-03-02T08:10:34.952Z,102292.18
2023-03-02T08:14:10.134Z,102289.17
2023-03-02T08:17:47.513Z,102292.93
2023-03-02T08:21:26.236Z,102296.67
2023-03-02T08:25:03.694Z,102298.39
2023-03-02T08:28:40.896Z,102302.22
2023-03-02T08:32:18.516Z,102301.10
2023-03-02T08:36:00.475Z,102300.02
2023-03-02T08:39:33.905Z,102301.42
2023-03-02T08:43:12.761Z,102298.57
2023-03-02T08:46:50.214Z,102300.78
2023-03-02T08:50:26.921Z,102305.15
2023-03-02T08:54:04.450Z,102307.57
2023-03-02T08:57:42.430Z,102307.35
2023-03-02T09:01:25.922Z,102307.90
2023-03-02T09:04:57.553Z,102309.80
2023-03-02T09:08:34.969Z,102308.85
2023-03-02T09:12:12.964Z,102307.33
2023-03-02T09:15:50.369Z,102300.81
2023-03-02T09:19:28.446Z,102298.23
2023-03-02T09:23:05.551Z,102295.81
2023-03-02T09:27:03.177Z,102290.34
2023-03-02T09:30:20.935Z,102286.80
2023-03-02T09:33:58.838Z,102286.83
2023-03-02T09:37:39.070Z,102285.25
2023-03-02T09:41:32.984Z,102286.35
2023-03-02T09:45:15.570Z,102297.25
2023-03-02T09:48:48.395Z,102287.13
2023-03-02T09:52:17.274Z,102286.75
2023-03-02T09:55:47.673Z,102293.50
2023-03-02T09:59:28.008Z,102277.59
2023-03-02T10:03:16.989Z,102280.91
2023-03-02T10:07:13.136Z,102284.33
2023-03-02T10:10:18.489Z,102282.24
2023-03-02T10:14:00.089Z,102274.66
2023-03-02T10:17:37.979Z,102273.23
2023-03-02T10:21:33.320Z,102282.58
2023-03-02T10:25:14.727Z,102279.33
2023-03-02T10:28:32.897Z,102273.42
2023-03-02T10:32:42.175Z,102272.69
2023-03-02T10:36:01.307Z,102272.99
2023-03-02T10:39:36.919Z,102274.41
2023-03-02T10:43:16.334Z,102281.15
2023-03-02T10:46:53.928Z,102285.52
2023-03-02T10:50:30.825Z,102278.62
2023-03-02T10:54:07.322Z,102275.31
2023-03-02T10:57:57.010Z,102270.70
2023-03-02T11:01:21.113Z,102265.33
2023-03-02T11:05:35.902Z,102261.17
2023-03-02T11:08:37.719Z,102259.50
2023-03-02T11:12:17.430Z,102257.06
2023-03-02T11:15:59.792Z,102252.30
2023-03-02T11:19:39.155Z,102250.17
2023-03-02T11:23:23.999Z,102245.82
2023-03-02T11:26:47.672Z,102244.77
2023-03-02T11:30:27.132Z,102243.34
2023-03-02T11:34:17.827Z,102238.50
2023-03-02T11:37:48.732Z,102234.07
2023-03-02T11:41:36.733Z,102230.64
2023-03-02T11:44:53.670Z,102230.31
2023-03-02T11:48:49.131Z,102219.11
2023-03-02T11:52:21.898Z,102221.25
2023-03-02T11:55:49.683Z,102217.16
2023-03-02T11:59:28.917Z,102216.85
2023-03-02T12:03:10.794Z,102210.68
2023-03-02T12:06:44.186Z,102202.92
2023-03-02T12:10:33.656Z,102205.63
2023-03-02T12:13:54.720Z,102201.77
2023-03-02T12:17:35.239Z,102201.66
2023-03-02T12:21:16.724Z,102192.81
2023-03-02T12:24:47.378Z,102190.09
2023-03-02T12:28:44.237Z,102185.67
2023-03-02T12:32:13.168Z,102176.60
2023-03-02T12:35:41.183Z,102172.19
2023-03-02T12:39:40.554Z,102165.94
2023-03-02T12:43:23.569Z,102163.07
2023-03-02T12:46:35.725Z,102158.54
2023-03-02T12:50:27.459Z,102155.39
2023-03-02T12:53:49.716Z,102147.48
2023-03-02T12:57:27.244Z,102149.16
2023-03-02T13:01:04.485Z,102147.94
2023-03-02T13:04:42.160Z,102145.84
2023-03-02T13:08:27.803Z,102144.64
2023-03-02T13:11:58.229Z,102140.18
2023-03-02T13:15:35.160Z,102139.33
2023-03-02T13:19:17.059Z,102135.91
2023-03-02T13:22:50.922Z,102134.70
2023-03-02T13:26:35.020Z,102136.78
2023-03-02T13:30:23.741Z,102137.70
2023-03-02T13:33:48.912Z,102132.95
2023-03-02T13:37:44.219Z,102122.27
2023-03-02T13:40:58.982Z,102116.67
2023-03-02T13:44:36.455Z,102112.77
2023-03-02T13:48:15.571Z,102107.13
2023-03-02T13:52:01.352Z,102100.41
2023-03-02T13:55:30.139Z,102101.63
2023-03-02T13:59:16.393Z,102096.15
2023-03-02T14:02:49.095Z,102092.54
2023-03-02T14:06:22.917Z,102086.80
2023-03-02T14:13:42.113Z,102075.51
2023-03-02T14:17:18.646Z,102075.27
2023-03-02T14:20:53.149Z,102065.63
2023-03-02T14:24:31.038Z,102063.34
2023-03-02T14:28:13.572Z,102057.38
2023-03-02T14:31:46.292Z,102053.60
2023-03-02T14:35:25.876Z,102051.54
2023-03-02T14:39:05.872Z,102048.08
2023-03-02T14:42:39.218Z,102047.52
2023-03-02T14:46:17.384Z,102040.91
2023-03-02T14:49:54.953Z,102035.17
2023-03-02T14:53:34.950Z,102028.72
2023-03-02T14:57:18.212Z,102024.55
2023-03-02T15:00:48.631Z,102021.75
2023-03-02T15:04:25.255Z,102020.00
2023-03-02T15:08:02.678Z,102023.08
2023-03-02T15:11:40.495Z,102013.14
2023-03-02T15:15:18.103Z,102012.84
2023-03-02T15:18:58.398Z,102008.03
2023-03-02T15:22:34.606Z,102007.09
2023-03-02T15:26:12.467Z,102002.70
2023-03-02T15:29:56.709Z,102002.06
2023-03-02T15:33:26.403Z,101997.66
2023-03-02T15:37:04.057Z,101994.80
2023-03-02T15:40:41.849Z,101993.58
2023-03-02T15:44:23.051Z,101998.06
2023-03-02T15:47:57.083Z,101999.27
2023-03-02T15:51:34.853Z,101997.45
2023-03-02T15:55:14.987Z,101995.99
2023-03-02T15:58:50.875Z,101996.88
2023-03-02T16:02:27.627Z,101995.20
2023-03-02T16:06:07.391Z,101998.50
2023-03-02T16:09:45.380Z,101990.33
2023-03-02T16:13:20.840Z,101986.73
2023-03-02T16:16:58.347Z,101991.36
2023-03-02T16:20:55.090Z,101984.20
2023-03-02T16:24:13.979Z,101986.33
2023-03-02T16:27:53.743Z,101991.48
2023-03-02T16:31:32.334Z,101983.36
2023-03-02T16:35:08.909Z,101980.48
2023-03-02T16:38:44.300Z,101979.08
2023-03-02T16:42:22.107Z,101983.45
2023-03-02T16:45:59.995Z,101982.17
2023-03-02T16:49:37.611Z,101985.30
2023-03-02T16:53:15.022Z,101983.61
2023-03-02T16:56:52.748Z,101981.98
2023-03-02T17:00:31.483Z,101977.62
2023-03-02T17:04:08.673Z,101979.26
2023-03-02T17:07:46.767Z,101981.20
2023-03-02T17:11:42.264Z,101982.59
2023-03-02T17:15:01.101Z,101988.59
2023-03-02T17:18:41.140Z,101987.20
2023-03-02T17:22:16.717Z,101989.05
2023-03-02T17:25:55.706Z,101987.37
2023-03-02T17:29:51.356Z,101986.56
2023-03-02T17:33:09.947Z,101985.86
2023-03-02T17:36:47.296Z,101986.52
2023-03-02T17:40:25.069Z,101992.56
2023-03-02T17:44:03.745Z,101995.59
2023-03-02T17:47:40.153Z,101992.73
2023-03-02T17:51:18.133Z,101985.36
2023-03-02T17:54:55.615Z,101992.26
2023-03-02T17:58:44.342Z,101995.09
2023-03-02T18:02:10.817Z,101988.57
2023-03-02T18:05:48.804Z,101979.45
2023-03-02T18:09:26.447Z,101982.92
2023-03-02T18:13:04.158Z,101982.98
2023-03-02T18:16:41.910Z,101979.31
2023-03-02T18:20:19.235Z,101981.92
2023-03-02T18:23:58.124Z,101981.05
2023-03-02T18:27:34.937Z,101980.80
2023-03-02T18:31:16.340Z,101976.30
2023-03-02T18:34:50.094Z,101983.05
2023-03-02T18:38:31.039Z,101976.95
2023-03-02T18:42:06.646Z,101973.77
2023-03-02T18:45:43.456Z,101971.25
2023-03-02T18:49:20.400Z,101960.38
2023-03-02T18:52:58.456Z,101956.86
2023-03-02T18:56:41.482Z,101955.34
2023-03-02T19:00:21.684Z,101945.96
2023-03-02T19:03:51.751Z,101937.59
2023-03-02T19:07:29.244Z,101937.27
2023-03-02T19:11:06.818Z,101938.92
2023-03-02T19:15:04.424Z,101939.20
2023-03-02T19:18:25.514Z,101941.36
2023-03-02T19:22:00.552Z,101932.44
2023-03-02T19:25:37.472Z,101926.41
2023-03-02T19:29:14.745Z,101923.33
2023-03-02T19:32:54.327Z,101911.13
2023-03-02T19:36:30.749Z,101919.09
2023-03-02T19:40:08.914Z,101908.33
2023-03-02T19:43:46.554Z,101900.28
2023-03-02T19:47:23.323Z,101899.70
2023-03-02T19:51:01.500Z,101893.92
2023-03-02T19:54:38.804Z,101885.19
2023-03-02T19:58:17.577Z,101886.69
2023-03-02T20:01:55.408Z,101884.18
2023-03-02T20:05:32.377Z,101880.06
2023-03-02T20:09:09.763Z,101869.89
2023-03-02T20:12:46.931Z,101878.31
2023-03-02T20:16:25.098Z,101880.66
2023-03-02T20:20:03.991Z,101887.44
2023-03-02T20:23:40.175Z,101886.39
2023-03-02T20:27:17.906Z,101876.87
2023-03-02T20:30:59.608Z,101876.67
2023-03-02T20:34:33.190Z,101875.59
2023-03-02T20:38:16.667Z,101882.33
2023-03-02T20:41:49.390Z,101868.42
2023-03-02T20:45:26.505Z,101884.33
2023-03-02T20:49:07.094Z,101882.31
2023-03-02T20:52:41.709Z,101892.00
2023-03-02T20:56:20.138Z,101882.95
2023-03-02T20:59:56.388Z,101879.60
2023-03-02T21:03:34.745Z,101869.88
2023-03-02T21:07:14.394Z,101864.95
2023-03-02T21:10:50.288Z,101850.55
2023-03-02T21:14:30.880Z,101852.01
2023-03-02T21:18:05.697Z,101840.86
2023-03-02T21:21:42.860Z,101846.27
2023-03-02T21:25:20.830Z,101830.56
2023-03-02T21:28:58.227Z,101831.30
2023-03-02T21:32:35.913Z,101824.46
2023-03-02T21:36:19.219Z,101829.41
2023-03-02T21:39:51.088Z,101827.88
2023-03-02T21:43:28.873Z,101831.71
2023-03-02T21:47:06.234Z,101823.14
2023-03-02T21:50:44.753Z,101811.66
2023-03-02T21:54:21.812Z,101808.88
2023-03-02T21:57:59.642Z,101803.05
2023-03-02T22:01:37.142Z,101803.73
2023-03-02T22:05:14.556Z,101795.54
2023-03-02T22:08:53.093Z,101780.93
2023-03-02T22:12:30.336Z,101774.52
2023-03-02T22:16:22.902Z,101773.10
2023-03-02T22:19:46.034Z,101778.93
2023-03-02T22:23:26.377Z,101783.21
2023-03-02T22:27:18.554Z,101767.71
2023-03-02T22:30:38.238Z,101766.40
2023-03-02T22:34:20.592Z,101744.50
2023-03-02T22:38:07.177Z,101738.48
2023-03-02T22:41:31.283Z,101742.34
2023-03-02T22:45:20.878Z,101733.66
2023-03-02T22:48:49.596Z,101736.13
2023-03-02T22:52:27.978Z,101742.37
2023-03-02T22:56:04.159Z,101736.34
2023-03-02T22:59:40.077Z,101738.70
2023-03-02T23:03:43.498Z,101735.35
2023-03-02T23:07:00.486Z,101739.71
2023-03-02T23:10:33.119Z,101753.40
2023-03-02T23:14:19.242Z,101757.11
2023-03-02T23:17:48.485Z,101747.36
2023-03-02T23:21:30.280Z,101752.17
2023-03-02T23:25:03.805Z,101742.20
2023-03-02T23:28:41.348Z,101743.06
2023-03-02T23:32:19.781Z,101757.31
2023-03-02T23:35:56.693Z,101743.80
2023-03-02T23:39:34.160Z,101731.17
2023-03-02T23:43:11.874Z,101723.22
2023-03-02T23:46:52.594Z,101714.14
2023-03-02T23:50:27.351Z,101699.00
2023-03-02T23:54:05.176Z,101699.95
2023-03-02T23:57:42.395Z,101681.35
